createdAt,value
2019-02-11T00:00:34.161Z,23.00
2019-02-11T00:02:26.755Z,23.60
2019-02-11T00:03:26.253Z,22.50
2019-02-11T00:05:18.892Z,23.70
2019-02-11T00:06:18.814Z,23.00
2019-02-11T00:08:12.192Z,23.40
2019-02-11T00:09:12.212Z,23.00
2019-02-11T00:11:05.316Z,24.50
2019-02-11T00:12:05.543Z,23.00
2019-02-11T00:13:59.113Z,22.50
2019-02-11T00:14:58.873Z,23.20
2019-02-11T00:16:52.212Z,23.00
2019-02-11T00:17:51.983Z,24.80
2019-02-11T00:19:45.556Z,24.90
2019-02-11T00:20:45.523Z,24.90
2019-02-11T00:22:38.871Z,23.10
2019-02-11T00:23:38.869Z,23.80
2019-02-11T00:25:31.600Z,25.70
2019-02-11T00:26:31.548Z,26.90
2019-02-11T00:28:23.906Z,24.70
2019-02-11T00:29:23.677Z,26.50
2019-02-11T00:31:15.746Z,25.60
2019-02-11T00:32:15.530Z,26.70
2019-02-11T00:34:08.080Z,26.10
2019-02-11T00:35:07.842Z,27.30
2019-02-11T00:37:01.654Z,26.30
2019-02-11T00:38:01.189Z,25.10
2019-02-11T00:39:54.560Z,26.00
2019-02-11T00:40:54.529Z,24.70
2019-02-11T00:42:48.072Z,25.10
2019-02-11T00:43:48.167Z,25.70
2019-02-11T00:45:41.463Z,25.60
2019-02-11T00:46:41.443Z,27.00
2019-02-11T00:48:34.058Z,28.40
2019-02-11T00:49:33.604Z,27.90
2019-02-11T00:51:26.265Z,27.40
2019-02-11T00:52:25.963Z,27.00
2019-02-11T00:54:18.026Z,28.60
2019-02-11T00:55:18.049Z,29.70
2019-02-11T00:57:10.163Z,27.70
2019-02-11T00:58:10.397Z,28.30
2019-02-11T01:00:03.690Z,26.60
2019-02-11T01:01:03.738Z,29.70
2019-02-11T01:02:56.049Z,29.50
2019-02-11T01:03:56.027Z,31.90
2019-02-11T01:05:48.358Z,31.30
2019-02-11T01:06:48.417Z,31.10
2019-02-11T01:08:40.718Z,39.50
2019-02-11T01:09:40.446Z,49.20
2019-02-11T01:11:33.287Z,55.10
2019-02-11T01:12:32.807Z,55.30
2019-02-11T01:14:25.117Z,53.20
2019-02-11T01:15:25.104Z,47.20
2019-02-11T01:17:17.914Z,46.30
2019-02-11T01:18:17.464Z,43.60
2019-02-11T01:20:09.786Z,46.00
2019-02-11T01:21:10.035Z,50.70
2019-02-11T01:24:33.658Z,56.00
2019-02-11T01:25:33.419Z,56.50
2019-02-11T01:27:26.531Z,51.00
2019-02-11T01:28:26.776Z,53.40
2019-02-11T01:30:18.838Z,54.00
2019-02-11T01:31:18.374Z,51.10
2019-02-11T01:33:10.729Z,49.60
2019-02-11T01:34:10.982Z,54.60
2019-02-11T01:36:04.319Z,56.20
2019-02-11T01:37:04.335Z,56.20
2019-02-11T01:38:57.750Z,58.40
2019-02-11T01:39:57.454Z,61.80
2019-02-11T01:41:50.200Z,62.10
2019-02-11T01:42:50.011Z,62.90
2019-02-11T01:44:42.129Z,64.80
2019-02-11T01:45:42.068Z,58.90
2019-02-11T01:47:35.908Z,66.00
2019-02-11T01:48:35.456Z,60.80
2019-02-11T01:50:36.633Z,57.20
2019-02-11T01:51:29.326Z,55.90
2019-02-11T01:53:22.910Z,67.20
2019-02-11T01:54:22.628Z,61.30
2019-02-11T01:56:15.386Z,61.80
2019-02-11T01:57:14.994Z,63.60
2019-02-11T01:59:07.579Z,65.30
2019-02-11T02:00:07.634Z,56.90
2019-02-11T02:02:00.701Z,65.60
2019-02-11T02:03:00.910Z,60.70
2019-02-11T02:04:54.522Z,63.80
2019-02-11T02:05:54.264Z,61.10
2019-02-11T02:07:47.578Z,64.60
2019-02-11T02:08:47.797Z,65.90
2019-02-11T02:10:39.504Z,65.00
2019-02-11T02:11:39.429Z,64.70
2019-02-11T02:13:31.968Z,61.00
2019-02-11T02:14:31.584Z,61.60
2019-02-11T02:16:25.158Z,56.60
2019-02-11T02:17:25.179Z,58.70
2019-02-11T02:19:17.600Z,61.60
2019-02-11T02:20:17.484Z,61.00
2019-02-11T02:22:10.008Z,58.50
2019-02-11T02:23:09.803Z,56.90
2019-02-11T02:26:34.297Z,60.70
2019-02-11T02:27:34.230Z,61.50
2019-02-11T02:29:27.558Z,64.20
2019-02-11T02:30:27.523Z,77.80
2019-02-11T02:32:20.737Z,148.50
2019-02-11T02:33:20.671Z,137.30
2019-02-11T02:35:13.282Z,138.80
2019-02-11T02:38:05.324Z,146.40
2019-02-11T02:39:05.313Z,162.00
2019-02-11T02:40:58.190Z,155.50
2019-02-11T02:41:57.872Z,154.50
2019-02-11T02:43:55.487Z,133.60
2019-02-11T02:44:49.542Z,104.00
2019-02-11T02:46:42.059Z,112.00
2019-02-11T02:47:42.130Z,110.50
2019-02-11T02:49:34.470Z,132.20
2019-02-11T02:50:34.423Z,131.40
2019-02-11T02:52:29.105Z,123.30
2019-02-11T02:53:26.756Z,128.50
2019-02-11T02:55:18.852Z,135.70
2019-02-11T02:56:19.079Z,139.30
2019-02-11T02:58:11.744Z,174.70
2019-02-11T02:59:11.188Z,243.40
2019-02-11T03:01:04.791Z,286.70
2019-02-11T03:02:04.790Z,213.20
2019-02-11T03:03:57.080Z,138.70
2019-02-11T03:04:56.856Z,125.20
2019-02-11T03:06:50.486Z,131.90
2019-02-11T03:07:50.421Z,136.80
2019-02-11T03:09:43.010Z,123.50
2019-02-11T03:10:42.560Z,132.30
2019-02-11T03:12:34.918Z,138.60
2019-02-11T03:13:35.346Z,134.30
2019-02-11T03:15:28.487Z,129.60
2019-02-11T03:16:28.485Z,124.20
2019-02-11T03:18:20.578Z,120.70
2019-02-11T03:19:20.573Z,119.30
2019-02-11T03:21:14.452Z,117.40
2019-02-11T03:22:14.291Z,120.00
2019-02-11T03:24:07.373Z,105.10
2019-02-11T03:25:07.725Z,112.90
2019-02-11T03:27:00.661Z,119.40
2019-02-11T03:28:00.048Z,119.40
2019-02-11T03:29:52.491Z,117.30
2019-02-11T03:30:52.649Z,119.20
2019-02-11T03:32:44.628Z,115.10
2019-02-11T03:33:44.355Z,113.90
2019-02-11T03:35:37.830Z,112.00
2019-02-11T03:36:36.207Z,111.60
2019-02-11T03:38:30.004Z,110.90
2019-02-11T03:39:28.557Z,115.60
2019-02-11T03:41:20.940Z,113.00
2019-02-11T03:42:20.886Z,105.20
2019-02-11T03:44:17.714Z,107.40
2019-02-11T03:45:13.583Z,107.30
2019-02-11T03:47:05.850Z,107.10
2019-02-11T03:48:05.833Z,107.50
2019-02-11T03:49:58.356Z,106.80
2019-02-11T03:50:58.231Z,105.40
2019-02-11T03:52:50.988Z,107.30
2019-02-11T03:53:51.194Z,105.30
2019-02-11T03:55:43.162Z,104.70
2019-02-11T03:56:43.053Z,95.10
2019-02-11T03:58:35.379Z,97.80
2019-02-11T03:59:35.102Z,95.20
2019-02-11T04:01:27.759Z,98.50
2019-02-11T04:02:27.447Z,96.30
2019-02-11T04:04:20.139Z,80.00
2019-02-11T04:05:20.266Z,67.10
2019-02-11T04:07:12.645Z,57.40
2019-02-11T04:08:12.129Z,53.50
2019-02-11T04:10:04.592Z,56.70
2019-02-11T04:11:04.483Z,61.10
2019-02-11T04:12:57.019Z,63.20
2019-02-11T04:13:57.075Z,59.70
2019-02-11T04:15:49.629Z,58.30
2019-02-11T04:16:49.179Z,60.40
2019-02-11T04:18:41.942Z,58.40
2019-02-11T04:19:41.755Z,57.90
2019-02-11T04:21:33.894Z,60.40
2019-02-11T04:22:34.076Z,58.30
2019-02-11T04:25:26.177Z,56.50
2019-02-11T04:27:18.521Z,52.40
2019-02-11T04:28:18.515Z,51.70
2019-02-11T04:30:11.089Z,52.90
2019-02-11T04:31:10.892Z,53.30
2019-02-11T04:33:02.931Z,51.90
2019-02-11T04:34:02.728Z,51.70
2019-02-11T04:35:55.494Z,49.60
2019-02-11T04:36:55.037Z,50.60
2019-02-11T04:38:47.588Z,52.70
2019-02-11T04:39:47.403Z,54.00
2019-02-11T04:41:41.237Z,52.10
2019-02-11T04:42:40.747Z,53.60
2019-02-11T04:44:34.390Z,53.00
2019-02-11T04:45:34.085Z,50.30
2019-02-11T04:47:27.882Z,53.60
2019-02-11T04:48:27.679Z,53.60
2019-02-11T04:50:19.881Z,51.10
2019-02-11T04:53:13.306Z,49.70
2019-02-11T04:54:13.318Z,50.30
2019-02-11T04:56:05.442Z,49.40
2019-02-11T04:57:05.688Z,47.70
2019-02-11T04:58:58.355Z,47.60
2019-02-11T04:59:58.125Z,50.70
2019-02-11T05:01:51.756Z,48.60
2019-02-11T05:02:51.707Z,51.70
2019-02-11T05:04:44.673Z,47.10
2019-02-11T05:05:44.423Z,49.00
2019-02-11T05:07:36.861Z,48.10
2019-02-11T05:08:36.760Z,50.20
2019-02-11T05:10:29.315Z,49.20
2019-02-11T05:11:28.887Z,48.80
2019-02-11T05:13:22.468Z,47.90
2019-02-11T05:14:22.226Z,49.20
2019-02-11T05:16:14.762Z,46.90
2019-02-11T05:17:14.548Z,48.00
2019-02-11T05:19:07.115Z,47.80
2019-02-11T05:20:06.877Z,47.40
2019-02-11T05:22:00.464Z,45.10
2019-02-11T05:23:00.422Z,48.40
2019-02-11T05:24:52.666Z,45.40
2019-02-11T05:25:52.783Z,46.60
2019-02-11T05:27:46.473Z,44.10
2019-02-11T05:28:46.174Z,44.60
2019-02-11T05:30:38.466Z,41.20
2019-02-11T05:31:38.216Z,42.40
2019-02-11T05:33:30.795Z,38.40
2019-02-11T05:34:30.546Z,41.20
2019-02-11T05:36:23.125Z,40.90
2019-02-11T05:37:22.903Z,38.20
2019-02-11T05:39:14.903Z,40.80
2019-02-11T05:40:14.759Z,40.40
2019-02-11T05:42:08.106Z,39.20
2019-02-11T05:43:08.080Z,37.90
2019-02-11T05:45:01.510Z,37.80
2019-02-11T05:46:00.789Z,36.60
2019-02-11T05:47:54.184Z,37.00
2019-02-11T05:48:54.407Z,37.70
2019-02-11T05:51:47.772Z,37.90
2019-02-11T05:53:41.631Z,38.90
2019-02-11T05:54:41.618Z,38.50
2019-02-11T05:56:34.183Z,36.10
2019-02-11T05:57:33.718Z,37.20
2019-02-11T05:59:27.339Z,36.60
2019-02-11T06:00:27.031Z,37.00
2019-02-11T06:02:19.550Z,39.00
2019-02-11T06:03:19.615Z,37.00
2019-02-11T06:05:11.992Z,37.60
2019-02-11T06:06:11.757Z,36.30
2019-02-11T06:08:26.361Z,37.50
2019-02-11T06:09:05.332Z,31.80
2019-02-11T06:10:57.836Z,36.40
2019-02-11T06:11:57.766Z,34.10
2019-02-11T06:13:50.346Z,37.00
2019-02-11T06:14:50.091Z,34.60
2019-02-11T06:16:42.459Z,37.00
2019-02-11T06:17:42.229Z,35.60
2019-02-11T06:19:34.766Z,34.40
2019-02-11T06:20:34.554Z,35.40
2019-02-11T06:22:26.989Z,36.40
2019-02-11T06:23:27.074Z,34.30
2019-02-11T06:25:19.838Z,31.60
2019-02-11T06:26:19.614Z,33.50
2019-02-11T06:28:11.758Z,32.20
2019-02-11T06:29:11.536Z,33.00
2019-02-11T06:31:04.101Z,31.20
2019-02-11T06:32:04.094Z,33.30
2019-02-11T06:33:56.208Z,33.80
2019-02-11T06:34:56.382Z,32.80
2019-02-11T06:36:49.053Z,32.70
2019-02-11T06:37:48.850Z,33.00
2019-02-11T06:39:41.694Z,33.40
2019-02-11T06:40:41.094Z,33.20
2019-02-11T06:42:33.654Z,31.50
2019-02-11T06:43:33.156Z,31.80
2019-02-11T06:45:25.729Z,31.00
2019-02-11T06:46:25.483Z,32.60
2019-02-11T06:48:19.346Z,29.50
2019-02-11T06:49:19.059Z,29.50
2019-02-11T06:51:11.182Z,30.10
2019-02-11T06:52:11.196Z,29.10
2019-02-11T06:54:04.728Z,29.30
2019-02-11T06:55:04.533Z,29.50
2019-02-11T06:56:57.155Z,29.50
2019-02-11T06:57:57.137Z,28.90
2019-02-11T06:59:50.000Z,27.90
2019-02-11T07:00:49.451Z,28.80
2019-02-11T07:02:42.577Z,26.80
2019-02-11T07:03:42.781Z,25.80
2019-02-11T07:05:35.355Z,27.10
2019-02-11T07:06:34.902Z,27.50
2019-02-11T07:08:28.218Z,26.90
2019-02-11T07:09:28.245Z,24.40
2019-02-11T07:11:22.189Z,23.90
2019-02-11T07:12:21.730Z,26.30
2019-02-11T07:14:14.421Z,25.30
2019-02-11T07:15:21.592Z,26.80
2019-02-11T07:17:07.958Z,22.40
2019-02-11T07:18:07.988Z,22.60
2019-02-11T07:20:00.510Z,22.00
2019-02-11T07:21:00.495Z,23.60
2019-02-11T07:22:54.403Z,23.00
2019-02-11T07:23:54.076Z,23.20
2019-02-11T07:25:47.454Z,23.90
2019-02-11T07:26:47.176Z,23.90
2019-02-11T07:28:40.748Z,21.90
2019-02-11T07:29:40.545Z,22.70
2019-02-11T07:31:33.144Z,22.10
2019-02-11T07:32:33.126Z,21.90
2019-02-11T07:34:25.463Z,21.90
2019-02-11T07:35:25.242Z,21.70
2019-02-11T07:37:17.818Z,21.00
2019-02-11T07:38:17.810Z,21.50
2019-02-11T07:40:10.401Z,19.50
2019-02-11T07:41:09.895Z,21.00
2019-02-11T07:43:02.506Z,19.80
2019-02-11T07:44:02.465Z,20.80
2019-02-11T07:45:55.437Z,19.80
2019-02-11T07:46:54.959Z,19.40
2019-02-11T07:48:47.545Z,21.50
2019-02-11T07:49:47.270Z,21.00
2019-02-11T07:51:42.258Z,17.90
2019-02-11T07:52:39.603Z,19.10
2019-02-11T07:54:32.502Z,18.00
2019-02-11T07:55:32.502Z,19.70
2019-02-11T07:57:25.350Z,19.50
2019-02-11T07:58:25.065Z,19.60
2019-02-11T08:00:18.271Z,17.90
2019-02-11T08:01:19.537Z,18.80
2019-02-11T08:03:10.849Z,16.30
2019-02-11T08:04:10.603Z,17.70
2019-02-11T08:07:34.004Z,17.20
2019-02-11T08:08:34.257Z,16.70
2019-02-11T08:10:26.830Z,18.00
2019-02-11T08:11:26.355Z,17.70
2019-02-11T08:13:19.979Z,17.50
2019-02-11T08:14:19.713Z,16.40
2019-02-11T08:17:12.045Z,15.90
2019-02-11T08:19:04.616Z,17.30
2019-02-11T08:20:04.577Z,17.80
2019-02-11T08:21:58.164Z,18.50
2019-02-11T08:22:57.731Z,16.50
2019-02-11T08:24:50.333Z,16.80
2019-02-11T08:25:50.328Z,15.30
2019-02-11T08:27:43.897Z,15.30
2019-02-11T08:28:43.413Z,15.80
2019-02-11T08:30:35.992Z,15.80
2019-02-11T08:31:35.736Z,15.60
2019-02-11T08:33:28.274Z,15.80
2019-02-11T08:34:28.286Z,15.30
2019-02-11T08:36:20.427Z,14.50
2019-02-11T08:37:20.413Z,15.00
2019-02-11T08:39:13.998Z,15.70
2019-02-11T08:40:13.725Z,14.90
2019-02-11T08:42:06.311Z,14.60
2019-02-11T08:43:06.319Z,15.50
2019-02-11T08:44:59.807Z,15.10
2019-02-11T08:45:59.634Z,15.00
2019-02-11T08:47:51.984Z,14.00
2019-02-11T08:48:51.762Z,14.90
2019-02-11T08:50:44.329Z,14.40
2019-02-11T08:51:44.550Z,13.20
2019-02-11T08:53:36.755Z,13.80
2019-02-11T08:54:36.404Z,13.40
2019-02-11T08:56:30.089Z,14.20
2019-02-11T08:57:29.867Z,14.00
2019-02-11T08:59:22.535Z,13.40
2019-02-11T09:00:22.322Z,14.40
2019-02-11T09:02:14.816Z,14.90
2019-02-11T09:03:14.894Z,13.70
2019-02-11T09:05:07.011Z,13.90
2019-02-11T09:06:07.006Z,13.90
2019-02-11T09:08:00.858Z,12.20
2019-02-11T09:08:59.558Z,12.20
2019-02-11T09:10:51.806Z,13.20
2019-02-11T09:11:52.051Z,13.10
2019-02-11T09:13:44.416Z,13.90
2019-02-11T09:14:44.173Z,13.80
2019-02-11T09:18:08.409Z,12.00
2019-02-11T09:19:07.553Z,13.30
2019-02-11T09:21:00.107Z,12.50
2019-02-11T09:22:07.317Z,12.30
2019-02-11T09:23:52.220Z,12.80
2019-02-11T09:24:52.230Z,14.10
2019-02-11T09:26:45.049Z,12.90
2019-02-11T09:27:44.804Z,12.60
2019-02-11T09:29:37.164Z,12.40
2019-02-11T09:30:36.861Z,12.80
2019-02-11T09:32:30.443Z,12.90
2019-02-11T09:33:30.241Z,11.90
2019-02-11T09:35:22.929Z,12.00
2019-02-11T09:36:22.586Z,13.10
2019-02-11T09:38:16.116Z,12.90
2019-02-11T09:39:16.121Z,11.70
2019-02-11T09:41:08.113Z,12.60
2019-02-11T09:42:07.786Z,12.60
2019-02-11T09:44:00.370Z,11.70
2019-02-11T09:45:00.102Z,12.50
2019-02-11T09:46:52.662Z,11.60
2019-02-11T09:47:52.448Z,11.90
2019-02-11T09:49:45.966Z,11.60
2019-02-11T09:50:46.000Z,12.80
2019-02-11T09:52:39.383Z,12.30
2019-02-11T09:53:39.157Z,12.90
2019-02-11T09:55:33.561Z,13.00
2019-02-11T09:56:33.034Z,12.00
2019-02-11T09:58:25.600Z,12.30
2019-02-11T09:59:25.571Z,12.70
2019-02-11T10:01:17.857Z,12.60
2019-02-11T10:02:17.912Z,11.60
2019-02-11T10:04:11.298Z,12.60
2019-02-11T10:05:11.020Z,13.40
2019-02-11T10:07:03.994Z,12.00
2019-02-11T10:08:03.961Z,12.70
2019-02-11T10:09:57.085Z,13.70
2019-02-11T10:10:57.084Z,13.60
2019-02-11T10:12:49.988Z,12.50
2019-02-11T10:13:49.394Z,11.90
2019-02-11T10:15:43.097Z,13.20
2019-02-11T10:16:43.029Z,12.30
2019-02-11T10:18:35.099Z,11.60
2019-02-11T10:19:34.845Z,11.90
2019-02-11T10:21:26.973Z,13.90
2019-02-11T10:22:26.925Z,13.40
2019-02-11T10:24:20.726Z,12.30
2019-02-11T10:25:20.293Z,13.60
2019-02-11T10:27:13.885Z,12.70
2019-02-11T10:28:13.860Z,11.70
2019-02-11T10:30:07.446Z,12.20
2019-02-11T10:31:06.952Z,12.10
2019-02-11T10:33:00.309Z,13.20
2019-02-11T10:34:00.567Z,12.50
2019-02-11T10:35:53.102Z,12.70
2019-02-11T10:36:52.665Z,12.50
2019-02-11T10:38:46.242Z,12.80
2019-02-11T10:39:45.972Z,13.70
2019-02-11T10:41:39.496Z,13.40
2019-02-11T10:42:39.349Z,12.90
2019-02-11T10:44:32.671Z,14.70
2019-02-11T10:45:36.548Z,14.10
2019-02-11T10:47:26.502Z,14.10
2019-02-11T10:48:26.017Z,14.60
2019-02-11T10:50:19.441Z,13.20
2019-02-11T10:51:19.619Z,14.30
2019-02-11T10:53:12.909Z,13.70
2019-02-11T10:54:12.947Z,14.90
2019-02-11T10:56:05.266Z,15.10
2019-02-11T10:57:05.278Z,15.00
2019-02-11T10:58:58.837Z,14.10
2019-02-11T10:59:58.369Z,15.70
2019-02-11T11:01:51.983Z,15.10
2019-02-11T11:02:51.704Z,15.00
2019-02-11T11:04:44.521Z,16.80
2019-02-11T11:05:44.300Z,16.30
2019-02-11T11:07:36.374Z,15.40
2019-02-11T11:08:36.625Z,17.80
2019-02-11T11:10:28.923Z,16.60
2019-02-11T11:11:28.942Z,17.50
2019-02-11T11:13:22.306Z,18.90
2019-02-11T11:15:53.278Z,19.70
2019-02-11T11:16:53.117Z,18.30
2019-02-11T11:18:45.660Z,19.20
2019-02-11T11:19:45.419Z,20.60
2019-02-11T11:21:39.260Z,18.60
2019-02-11T11:22:38.553Z,19.30
2019-02-11T11:24:30.663Z,19.70
2019-02-11T11:25:30.648Z,19.00
2019-02-11T11:27:24.227Z,18.30
2019-02-11T11:28:24.216Z,19.10
2019-02-11T11:30:16.324Z,20.20
2019-02-11T11:31:16.335Z,20.10
2019-02-11T11:33:09.886Z,19.50
2019-02-11T11:34:09.871Z,20.00
2019-02-11T11:36:02.256Z,21.50
2019-02-11T11:37:02.221Z,21.40
2019-02-11T11:38:55.840Z,20.40
2019-02-11T11:39:55.326Z,20.70
2019-02-11T11:41:48.920Z,21.90
2019-02-11T11:42:48.946Z,21.00
2019-02-11T11:44:41.500Z,20.40
2019-02-11T11:45:41.042Z,20.80
2019-02-11T11:47:34.606Z,20.10
2019-02-11T11:48:33.339Z,18.70
2019-02-11T11:50:26.187Z,20.30
2019-02-11T11:51:25.667Z,20.40
2019-02-11T11:53:19.267Z,19.40
2019-02-11T11:54:19.053Z,17.80
2019-02-11T11:56:12.398Z,18.70
2019-02-11T11:57:12.159Z,17.70
2019-02-11T11:59:04.277Z,17.00
2019-02-11T12:00:04.484Z,17.10
2019-02-11T12:01:56.787Z,17.00
2019-02-11T12:03:02.697Z,17.90
2019-02-11T12:04:49.193Z,18.10
2019-02-11T12:05:48.900Z,18.10
2019-02-11T12:07:40.977Z,19.40
2019-02-11T12:08:40.753Z,19.20
2019-02-11T12:10:33.713Z,17.80
2019-02-11T12:11:33.443Z,19.20
2019-02-11T12:13:27.252Z,19.30
2019-02-11T12:14:26.797Z,19.00
2019-02-11T12:16:19.749Z,19.90
2019-02-11T12:17:19.733Z,18.90
2019-02-11T12:19:13.078Z,18.80
2019-02-11T12:20:13.092Z,18.00
2019-02-11T12:22:06.424Z,18.60
2019-02-11T12:23:06.160Z,17.10
2019-02-11T12:24:59.972Z,18.40
2019-02-11T12:25:59.559Z,19.10
2019-02-11T12:27:53.124Z,18.70
2019-02-11T12:28:52.855Z,18.10
2019-02-11T12:30:45.578Z,17.50
2019-02-11T12:31:45.194Z,16.50
2019-02-11T12:33:37.905Z,18.60
2019-02-11T12:34:38.171Z,17.70
2019-02-11T12:36:30.457Z,18.70
2019-02-11T12:37:30.225Z,17.50
2019-02-11T12:39:23.827Z,18.80
2019-02-11T12:40:23.579Z,17.40
2019-02-11T12:42:17.362Z,17.40
2019-02-11T12:43:17.176Z,17.20
2019-02-11T12:45:09.275Z,16.00
2019-02-11T12:46:09.502Z,17.40
2019-02-11T12:48:02.000Z,15.10
2019-02-11T12:49:01.936Z,17.10
2019-02-11T12:50:54.307Z,15.10
2019-02-11T12:51:54.530Z,15.60
2019-02-11T12:53:46.875Z,15.80
2019-02-11T12:54:46.865Z,15.60
2019-02-11T12:56:38.961Z,16.40
2019-02-11T12:57:38.949Z,15.10
2019-02-11T12:59:32.789Z,14.50
2019-02-11T13:00:32.529Z,14.70
2019-02-11T13:02:24.876Z,15.60
2019-02-11T13:03:24.617Z,14.70
2019-02-11T13:05:21.442Z,14.40
2019-02-11T13:06:16.969Z,14.80
2019-02-11T13:08:10.573Z,14.80
2019-02-11T13:09:10.316Z,14.50
2019-02-11T13:11:03.052Z,16.00
2019-02-11T13:12:02.842Z,15.20
2019-02-11T13:13:55.228Z,16.40
2019-02-11T13:14:55.195Z,15.60
2019-02-11T13:16:47.802Z,15.10
2019-02-11T13:17:47.398Z,17.00
2019-02-11T13:19:40.867Z,15.10
2019-02-11T13:20:40.677Z,15.40
2019-02-11T13:22:34.179Z,13.70
2019-02-11T13:23:34.228Z,16.20
2019-02-11T13:25:26.860Z,14.90
2019-02-11T13:26:26.871Z,15.30
2019-02-11T13:28:20.648Z,16.70
2019-02-11T13:29:20.189Z,16.90
2019-02-11T13:31:13.135Z,15.90
2019-02-11T13:32:12.897Z,15.60
2019-02-11T13:34:05.635Z,16.10
2019-02-11T13:35:05.432Z,16.10
2019-02-11T13:36:58.793Z,17.60
2019-02-11T13:37:58.825Z,16.30
2019-02-11T13:39:52.336Z,16.90
2019-02-11T13:40:51.889Z,17.70
2019-02-11T13:42:45.253Z,14.80
2019-02-11T13:43:45.269Z,15.40
2019-02-11T13:45:38.786Z,15.80
2019-02-11T13:46:38.865Z,15.30
2019-02-11T13:48:34.197Z,16.00
2019-02-11T13:49:31.525Z,15.90
2019-02-11T13:51:24.103Z,15.70
2019-02-11T13:52:23.599Z,16.20
2019-02-11T13:54:17.211Z,15.50
2019-02-11T13:55:17.247Z,15.10
2019-02-11T13:57:10.357Z,17.20
2019-02-11T13:58:10.068Z,17.40
2019-02-11T14:00:03.394Z,17.10
2019-02-11T14:01:03.422Z,16.90
2019-02-11T14:02:55.743Z,16.20
2019-02-11T14:03:55.495Z,17.20
2019-02-11T14:05:47.855Z,17.80
2019-02-11T14:06:48.166Z,17.10
2019-02-11T14:08:40.399Z,18.50
2019-02-11T14:09:40.161Z,21.10
2019-02-11T14:11:32.858Z,19.50
2019-02-11T14:12:32.461Z,20.30
2019-02-11T14:14:25.318Z,21.70
2019-02-11T14:15:25.041Z,22.90
2019-02-11T14:17:18.433Z,22.50
2019-02-11T14:18:18.141Z,22.80
2019-02-11T14:20:11.059Z,21.80
2019-02-11T14:21:10.852Z,22.90
2019-02-11T14:23:03.173Z,24.10
2019-02-11T14:24:02.837Z,23.40
2019-02-11T14:25:56.699Z,25.40
2019-02-11T14:26:56.138Z,23.40
2019-02-11T14:28:49.703Z,23.70
2019-02-11T14:29:48.467Z,21.90
2019-02-11T14:31:42.354Z,22.70
2019-02-11T14:32:41.824Z,21.90
2019-02-11T14:34:34.205Z,23.70
2019-02-11T14:35:34.455Z,22.50
2019-02-11T14:37:28.001Z,23.40
2019-02-11T14:38:27.508Z,24.80
2019-02-11T14:40:20.077Z,25.60
2019-02-11T14:41:20.101Z,25.00
2019-02-11T14:43:13.678Z,25.90
2019-02-11T14:44:14.089Z,27.80
2019-02-11T14:46:05.802Z,26.50
2019-02-11T14:47:05.564Z,26.30
2019-02-11T14:48:58.103Z,27.60
2019-02-11T14:49:58.107Z,28.80
2019-02-11T14:51:50.308Z,26.60
2019-02-11T14:52:50.273Z,27.70
2019-02-11T14:54:43.697Z,28.90
2019-02-11T14:55:42.897Z,27.30
2019-02-11T14:57:35.011Z,27.60
2019-02-11T14:58:35.221Z,28.10
2019-02-11T15:00:28.811Z,28.50
2019-02-11T15:01:28.303Z,28.70
2019-02-11T15:03:21.670Z,26.20
2019-02-11T15:04:21.649Z,27.40
2019-02-11T15:06:15.454Z,26.90
2019-02-11T15:07:15.292Z,26.30
2019-02-11T15:09:07.376Z,25.80
2019-02-11T15:10:07.328Z,27.40
2019-02-11T15:12:00.886Z,26.10
2019-02-11T15:13:00.934Z,24.90
2019-02-11T15:14:54.057Z,24.00
2019-02-11T15:15:54.006Z,26.30
2019-02-11T15:17:48.011Z,26.20
2019-02-11T15:18:47.357Z,27.60
2019-02-11T15:20:40.792Z,27.30
2019-02-11T15:21:40.749Z,26.40
2019-02-11T15:23:34.572Z,25.70
2019-02-11T15:24:34.349Z,25.20
2019-02-11T15:26:27.444Z,25.20
2019-02-11T15:27:27.440Z,25.60
2019-02-11T15:29:21.206Z,26.50
2019-02-11T15:30:21.032Z,27.90
2019-02-11T15:32:14.410Z,25.10
2019-02-11T15:33:14.121Z,27.50
2019-02-11T15:35:07.903Z,25.70
2019-02-11T15:36:07.725Z,26.20
2019-02-11T15:38:01.072Z,27.90
2019-02-11T15:39:01.086Z,25.90
2019-02-11T15:40:53.805Z,26.20
2019-02-11T15:41:53.601Z,26.50
2019-02-11T15:43:46.676Z,26.60
2019-02-11T15:44:46.885Z,25.40
2019-02-11T15:46:40.230Z,25.40
2019-02-11T15:47:40.018Z,25.10
2019-02-11T15:49:32.603Z,26.50
2019-02-11T15:50:32.374Z,26.10
2019-02-11T15:52:25.909Z,24.50
2019-02-11T15:53:25.706Z,25.40
2019-02-11T15:55:18.024Z,29.00
2019-02-11T15:56:18.293Z,28.00
2019-02-11T15:58:12.381Z,26.50
2019-02-11T15:59:12.194Z,26.90
2019-02-11T16:01:04.260Z,28.20
2019-02-11T16:02:04.506Z,26.90
2019-02-11T16:03:57.348Z,28.80
2019-02-11T16:05:02.343Z,28.70
2019-02-11T16:06:49.858Z,28.40
2019-02-11T16:07:50.078Z,27.00
2019-02-11T16:09:43.360Z,28.80
2019-02-11T16:10:43.443Z,30.50
2019-02-11T16:12:36.802Z,30.00
2019-02-11T16:13:36.526Z,27.30
2019-02-11T16:15:30.380Z,29.30
2019-02-11T16:16:29.854Z,31.30
2019-02-11T16:18:22.231Z,29.50
2019-02-11T16:19:22.250Z,28.10
2019-02-11T16:21:15.803Z,32.10
2019-02-11T16:22:15.755Z,29.40
2019-02-11T16:24:08.122Z,30.10
2019-02-11T16:25:07.865Z,27.60
2019-02-11T16:27:01.398Z,31.90
2019-02-11T16:28:01.225Z,31.00
2019-02-11T16:29:54.759Z,30.70
2019-02-11T16:30:54.574Z,30.60
2019-02-11T16:32:48.356Z,29.60
2019-02-11T16:33:48.182Z,27.90
2019-02-11T16:35:40.628Z,31.40
2019-02-11T16:36:40.809Z,30.70
2019-02-11T16:38:34.190Z,29.40
2019-02-11T16:39:34.158Z,29.60
2019-02-11T16:41:26.509Z,28.90
2019-02-11T16:42:26.247Z,31.10
2019-02-11T16:44:19.842Z,29.60
2019-02-11T16:45:19.601Z,28.50
2019-02-11T16:47:13.001Z,29.70
2019-02-11T16:48:13.237Z,28.40
2019-02-11T16:50:05.600Z,29.00
2019-02-11T16:51:05.577Z,28.00
2019-02-11T16:52:58.714Z,28.40
2019-02-11T16:53:58.713Z,28.30
2019-02-11T16:55:52.262Z,28.70
2019-02-11T16:56:52.301Z,27.80
2019-02-11T16:58:45.167Z,27.30
2019-02-11T16:59:45.140Z,28.50
2019-02-11T17:01:37.734Z,28.60
2019-02-11T17:02:37.501Z,29.50
2019-02-11T17:04:30.603Z,29.90
2019-02-11T17:05:30.848Z,29.70
2019-02-11T17:07:23.262Z,29.00
2019-02-11T17:08:23.321Z,27.60
2019-02-11T17:10:15.910Z,29.10
2019-02-11T17:11:15.921Z,30.70
2019-02-11T17:13:08.673Z,28.70
2019-02-11T17:14:08.264Z,28.50
2019-02-11T17:16:00.565Z,28.50
2019-02-11T17:17:00.788Z,28.40
2019-02-11T17:18:53.502Z,29.50
2019-02-11T17:19:53.247Z,30.20
2019-02-11T17:21:45.225Z,27.70
2019-02-11T17:22:45.120Z,26.70
2019-02-11T17:24:38.895Z,28.60
2019-02-11T17:25:38.691Z,27.40
2019-02-11T17:27:32.014Z,27.20
2019-02-11T17:28:32.050Z,27.80
2019-02-11T17:30:25.356Z,27.50
2019-02-11T17:31:25.362Z,26.60
2019-02-11T17:33:17.700Z,27.10
2019-02-11T17:34:17.490Z,26.70
2019-02-11T17:36:10.104Z,25.70
2019-02-11T17:37:10.054Z,27.00
2019-02-11T17:39:03.373Z,27.60
2019-02-11T17:40:03.126Z,28.20
2019-02-11T17:41:55.912Z,26.60
2019-02-11T17:42:55.464Z,25.60
2019-02-11T17:44:48.844Z,27.90
2019-02-11T17:45:48.852Z,28.70
2019-02-11T17:47:41.579Z,28.30
2019-02-11T17:48:41.172Z,27.10
2019-02-11T17:50:34.074Z,30.20
2019-02-11T17:51:33.851Z,29.30
2019-02-11T17:53:27.676Z,28.00
2019-02-11T17:54:28.438Z,29.70
2019-02-11T17:56:19.545Z,31.00
2019-02-11T17:57:19.521Z,33.10
2019-02-11T17:59:12.992Z,30.80
2019-02-11T18:00:12.760Z,30.40
2019-02-11T18:02:06.295Z,32.70
2019-02-11T18:03:05.847Z,30.50
2019-02-11T18:04:59.411Z,33.60
2019-02-11T18:06:00.408Z,33.60
2019-02-11T18:07:51.793Z,32.10
2019-02-11T18:08:51.532Z,32.80
2019-02-11T18:10:44.673Z,32.70
2019-02-11T18:11:44.204Z,31.70
2019-02-11T18:13:36.814Z,32.60
2019-02-11T18:14:36.761Z,31.80
2019-02-11T18:16:30.091Z,32.30
2019-02-11T18:17:29.854Z,30.20
2019-02-11T18:19:26.368Z,30.40
2019-02-11T18:20:22.450Z,29.60
2019-02-11T18:22:15.128Z,30.30
2019-02-11T18:23:14.767Z,29.60
2019-02-11T18:25:07.084Z,28.80
2019-02-11T18:26:07.099Z,28.80
2019-02-11T18:28:00.422Z,27.50
2019-02-11T18:29:00.446Z,26.20
2019-02-11T18:30:52.523Z,28.20
2019-02-11T18:31:52.785Z,28.40
2019-02-11T18:33:46.130Z,26.70
2019-02-11T18:34:47.199Z,28.10
2019-02-11T18:36:38.447Z,28.60
2019-02-11T18:37:38.178Z,27.70
2019-02-11T18:39:30.907Z,26.70
2019-02-11T18:40:30.959Z,27.10
2019-02-11T18:42:23.056Z,30.70
2019-02-11T18:43:23.011Z,29.40